sensor_id;sensor_type;location;lat;lon;timestamp;P1;durP1;ratioP1;P2;durP2;ratioP2
18720;SDS011;9489;50.948;3.114;2022-12-07T00:00:28;9.73;;;6.63;;
18720;SDS011;9489;50.948;3.114;2022-12-07T00:02:54;7.38;;;5.63;;
18720;SDS011;9489;50.948;3.114;2022-12-07T00:05:20;6.45;;;5.35;;
18720;SDS011;9489;50.948;3.114;2022-12-07T00:07:45;7.43;;;5.80;;
18720;SDS011;9489;50.948;3.114;2022-12-07T00:10:11;7.03;;;5.15;;
18720;SDS011;9489;50.948;3.114;2022-12-07T00:12:36;7.32;;;5.60;;
18720;SDS011;9489;50.948;3.114;2022-12-07T00:15:02;6.93;;;5.97;;
18720;SDS011;9489;50.948;3.114;2022-12-07T00:17:28;5.55;;;4.55;;
18720;SDS011;9489;50.948;3.114;2022-12-07T00:19:54;6.07;;;5.07;;
18720;SDS011;9489;50.948;3.114;2022-12-07T00:22:19;7.20;;;4.65;;
18720;SDS011;9489;50.948;3.114;2022-12-07T00:24:45;5.95;;;4.88;;
18720;SDS011;9489;50.948;3.114;2022-12-07T00:27:10;7.68;;;5.10;;
18720;SDS011;9489;50.948;3.114;2022-12-07T00:29:36;5.82;;;5.15;;
18720;SDS011;9489;50.948;3.114;2022-12-07T00:32:02;6.50;;;5.35;;
18720;SDS011;9489;50.948;3.114;2022-12-07T00:34:28;7.95;;;4.68;;
18720;SDS011;9489;50.948;3.114;2022-12-07T00:36:54;5.18;;;4.70;;
18720;SDS011;9489;50.948;3.114;2022-12-07T00:39:19;8.15;;;5.03;;
18720;SDS011;9489;50.948;3.114;2022-12-07T00:41:45;8.48;;;5.63;;
18720;SDS011;9489;50.948;3.114;2022-12-07T00:44:11;6.03;;;4.93;;
18720;SDS011;9489;50.948;3.114;2022-12-07T00:46:36;8.25;;;6.07;;
18720;SDS011;9489;50.948;3.114;2022-12-07T00:49:02;8.15;;;5.85;;
18720;SDS011;9489;50.948;3.114;2022-12-07T00:51:28;7.22;;;5.97;;
18720;SDS011;9489;50.948;3.114;2022-12-07T00:53:54;7.60;;;5.45;;
18720;SDS011;9489;50.948;3.114;2022-12-07T00:58:51;8.15;;;5.70;;
18720;SDS011;9489;50.948;3.114;2022-12-07T01:01:18;7.47;;;5.80;;
18720;SDS011;9489;50.948;3.114;2022-12-07T01:03:43;8.15;;;5.07;;
18720;SDS011;9489;50.948;3.114;2022-12-07T01:06:09;5.90;;;5.32;;
18720;SDS011;9489;50.948;3.114;2022-12-07T01:08:40;7.53;;;5.40;;
18720;SDS011;9489;50.948;3.114;2022-12-07T01:11:06;6.10;;;5.47;;
18720;SDS011;9489;50.948;3.114;2022-12-07T01:13:34;6.78;;;4.85;;
18720;SDS011;9489;50.948;3.114;2022-12-07T01:16:01;13.20;;;5.75;;
18720;SDS011;9489;50.948;3.114;2022-12-07T01:18:30;9.55;;;5.75;;
18720;SDS011;9489;50.948;3.114;2022-12-07T01:20:58;8.07;;;5.70;;
18720;SDS011;9489;50.948;3.114;2022-12-07T01:23:28;8.70;;;5.40;;
18720;SDS011;9489;50.948;3.114;2022-12-07T01:25:55;8.25;;;5.53;;
18720;SDS011;9489;50.948;3.114;2022-12-07T01:28:21;5.63;;;5.03;;
18720;SDS011;9489;50.948;3.114;2022-12-07T01:31:03;7.93;;;5.75;;
18720;SDS011;9489;50.948;3.114;2022-12-07T01:33:36;8.55;;;5.53;;
18720;SDS011;9489;50.948;3.114;2022-12-07T01:36:03;12.40;;;5.43;;
18720;SDS011;9489;50.948;3.114;2022-12-07T01:38:59;8.38;;;5.25;;
18720;SDS011;9489;50.948;3.114;2022-12-07T01:41:28;10.07;;;5.65;;
18720;SDS011;9489;50.948;3.114;2022-12-07T01:46:51;8.30;;;6.00;;
18720;SDS011;9489;50.948;3.114;2022-12-07T01:49:23;6.50;;;5.28;;
18720;SDS011;9489;50.948;3.114;2022-12-07T01:52:05;8.55;;;5.95;;
18720;SDS011;9489;50.948;3.114;2022-12-07T01:54:43;7.70;;;5.63;;
18720;SDS011;9489;50.948;3.114;2022-12-07T01:57:10;9.07;;;5.85;;
18720;SDS011;9489;50.948;3.114;2022-12-07T01:59:38;14.32;;;6.00;;
18720;SDS011;9489;50.948;3.114;2022-12-07T02:02:04;8.73;;;5.63;;
18720;SDS011;9489;50.948;3.114;2022-12-07T02:04:37;7.05;;;4.95;;
18720;SDS011;9489;50.948;3.114;2022-12-07T02:07:03;8.82;;;5.72;;
18720;SDS011;9489;50.948;3.114;2022-12-07T02:09:30;9.05;;;5.60;;
18720;SDS011;9489;50.948;3.114;2022-12-07T02:11:55;10.57;;;5.95;;
18720;SDS011;9489;50.948;3.114;2022-12-07T02:14:22;9.32;;;5.80;;
18720;SDS011;9489;50.948;3.114;2022-12-07T02:17:00;6.95;;;5.72;;
18720;SDS011;9489;50.948;3.114;2022-12-07T02:25:13;8.65;;;5.63;;
18720;SDS011;9489;50.948;3.114;2022-12-07T02:30:40;9.13;;;6.43;;
18720;SDS011;9489;50.948;3.114;2022-12-07T02:33:14;5.57;;;5.13;;
18720;SDS011;9489;50.948;3.114;2022-12-07T02:36:06;9.38;;;4.80;;
18720;SDS011;9489;50.948;3.114;2022-12-07T02:38:55;7.13;;;5.22;;
18720;SDS011;9489;50.948;3.114;2022-12-07T02:41:32;9.75;;;6.07;;
18720;SDS011;9489;50.948;3.114;2022-12-07T02:44:05;10.23;;;6.10;;
18720;SDS011;9489;50.948;3.114;2022-12-07T02:46:38;7.68;;;5.30;;
18720;SDS011;9489;50.948;3.114;2022-12-07T02:49:09;7.65;;;5.95;;
18720;SDS011;9489;50.948;3.114;2022-12-07T02:51:38;7.00;;;5.60;;
18720;SDS011;9489;50.948;3.114;2022-12-07T02:54:12;9.73;;;5.68;;
18720;SDS011;9489;50.948;3.114;2022-12-07T02:56:43;8.88;;;6.30;;
18720;SDS011;9489;50.948;3.114;2022-12-07T03:11:12;8.80;;;5.88;;
18720;SDS011;9489;50.948;3.114;2022-12-07T03:13:45;10.27;;;6.28;;
18720;SDS011;9489;50.948;3.114;2022-12-07T03:16:20;9.68;;;6.43;;
18720;SDS011;9489;50.948;3.114;2022-12-07T03:19:17;7.95;;;5.68;;
18720;SDS011;9489;50.948;3.114;2022-12-07T03:21:50;9.90;;;6.35;;
18720;SDS011;9489;50.948;3.114;2022-12-07T03:24:29;6.93;;;5.85;;
18720;SDS011;9489;50.948;3.114;2022-12-07T03:27:05;6.50;;;5.95;;
18720;SDS011;9489;50.948;3.114;2022-12-07T03:29:44;9.20;;;6.97;;
18720;SDS011;9489;50.948;3.114;2022-12-07T03:32:34;8.57;;;6.72;;
18720;SDS011;9489;50.948;3.114;2022-12-07T03:37:42;9.23;;;6.90;;
18720;SDS011;9489;50.948;3.114;2022-12-07T03:40:21;11.43;;;7.55;;
18720;SDS011;9489;50.948;3.114;2022-12-07T03:42:58;7.78;;;6.97;;
18720;SDS011;9489;50.948;3.114;2022-12-07T03:45:32;9.52;;;7.45;;
18720;SDS011;9489;50.948;3.114;2022-12-07T03:48:16;10.35;;;6.65;;
18720;SDS011;9489;50.948;3.114;2022-12-07T03:53:33;10.25;;;7.07;;
18720;SDS011;9489;50.948;3.114;2022-12-07T03:56:02;9.77;;;7.88;;
18720;SDS011;9489;50.948;3.114;2022-12-07T03:58:29;9.63;;;6.60;;
18720;SDS011;9489;50.948;3.114;2022-12-07T04:00:55;8.05;;;7.07;;
18720;SDS011;9489;50.948;3.114;2022-12-07T04:03:21;8.25;;;6.32;;
18720;SDS011;9489;50.948;3.114;2022-12-07T04:05:46;7.18;;;6.07;;
18720;SDS011;9489;50.948;3.114;2022-12-07T04:08:12;8.75;;;6.68;;
18720;SDS011;9489;50.948;3.114;2022-12-07T04:10:38;11.13;;;6.75;;
18720;SDS011;9489;50.948;3.114;2022-12-07T04:13:03;7.68;;;6.57;;
18720;SDS011;9489;50.948;3.114;2022-12-07T04:15:29;10.70;;;6.97;;
18720;SDS011;9489;50.948;3.114;2022-12-07T04:17:55;8.63;;;6.43;;
18720;SDS011;9489;50.948;3.114;2022-12-07T04:20:20;13.45;;;6.65;;
18720;SDS011;9489;50.948;3.114;2022-12-07T04:22:46;10.32;;;6.63;;
18720;SDS011;9489;50.948;3.114;2022-12-07T04:25:12;9.13;;;6.20;;
18720;SDS011;9489;50.948;3.114;2022-12-07T04:27:37;9.68;;;8.00;;
18720;SDS011;9489;50.948;3.114;2022-12-07T04:30:03;7.40;;;6.63;;
18720;SDS011;9489;50.948;3.114;2022-12-07T04:32:29;8.35;;;5.57;;
18720;SDS011;9489;50.948;3.114;2022-12-07T04:34:55;11.70;;;6.45;;
18720;SDS011;9489;50.948;3.114;2022-12-07T04:37:21;15.30;;;6.70;;
18720;SDS011;9489;50.948;3.114;2022-12-07T04:39:46;7.47;;;6.10;;
18720;SDS011;9489;50.948;3.114;2022-12-07T04:42:12;8.77;;;5.72;;
18720;SDS011;9489;50.948;3.114;2022-12-07T04:44:38;7.15;;;6.00;;
18720;SDS011;9489;50.948;3.114;2022-12-07T04:47:04;9.25;;;5.22;;
18720;SDS011;9489;50.948;3.114;2022-12-07T04:49:29;10.50;;;5.95;;
18720;SDS011;9489;50.948;3.114;2022-12-07T04:51:55;11.70;;;6.60;;
18720;SDS011;9489;50.948;3.114;2022-12-07T04:54:21;9.68;;;6.53;;
18720;SDS011;9489;50.948;3.114;2022-12-07T04:56:46;10.25;;;6.43;;
18720;SDS011;9489;50.948;3.114;2022-12-07T04:59:12;7.47;;;5.57;;
18720;SDS011;9489;50.948;3.114;2022-12-07T05:01:39;7.57;;;5.65;;
18720;SDS011;9489;50.948;3.114;2022-12-07T05:04:05;8.23;;;5.85;;
18720;SDS011;9489;50.948;3.114;2022-12-07T05:06:31;9.38;;;6.18;;
18720;SDS011;9489;50.948;3.114;2022-12-07T05:08:57;11.55;;;6.70;;
18720;SDS011;9489;50.948;3.114;2022-12-07T05:11:22;10.85;;;6.40;;
18720;SDS011;9489;50.948;3.114;2022-12-07T05:14:05;9.18;;;6.55;;
18720;SDS011;9489;50.948;3.114;2022-12-07T05:16:42;14.68;;;8.02;;
18720;SDS011;9489;50.948;3.114;2022-12-07T05:19:09;13.18;;;8.80;;
18720;SDS011;9489;50.948;3.114;2022-12-07T05:21:35;16.30;;;9.32;;
18720;SDS011;9489;50.948;3.114;2022-12-07T05:24:01;15.02;;;9.50;;
18720;SDS011;9489;50.948;3.114;2022-12-07T05:26:27;12.40;;;7.60;;
18720;SDS011;9489;50.948;3.114;2022-12-07T05:28:54;13.38;;;7.32;;
18720;SDS011;9489;50.948;3.114;2022-12-07T05:31:21;10.82;;;8.73;;
18720;SDS011;9489;50.948;3.114;2022-12-07T05:33:47;10.15;;;7.05;;
18720;SDS011;9489;50.948;3.114;2022-12-07T05:36:13;9.70;;;5.35;;
18720;SDS011;9489;50.948;3.114;2022-12-07T05:38:39;7.57;;;4.60;;
18720;SDS011;9489;50.948;3.114;2022-12-07T05:41:05;9.88;;;5.85;;
18720;SDS011;9489;50.948;3.114;2022-12-07T05:43:33;8.38;;;4.22;;
18720;SDS011;9489;50.948;3.114;2022-12-07T05:45:59;5.20;;;4.47;;
18720;SDS011;9489;50.948;3.114;2022-12-07T05:48:25;7.72;;;4.55;;
18720;SDS011;9489;50.948;3.114;2022-12-07T05:50:51;9.70;;;4.80;;
18720;SDS011;9489;50.948;3.114;2022-12-07T05:53:17;10.00;;;4.78;;
18720;SDS011;9489;50.948;3.114;2022-12-07T05:55:43;6.80;;;4.03;;
18720;SDS011;9489;50.948;3.114;2022-12-07T05:58:09;5.97;;;4.60;;
18720;SDS011;9489;50.948;3.114;2022-12-07T06:00:58;8.18;;;4.38;;
18720;SDS011;9489;50.948;3.114;2022-12-07T06:03:23;8.45;;;4.80;;
18720;SDS011;9489;50.948;3.114;2022-12-07T06:05:49;7.32;;;4.40;;
18720;SDS011;9489;50.948;3.114;2022-12-07T06:08:14;10.02;;;4.80;;
18720;SDS011;9489;50.948;3.114;2022-12-07T06:10:40;11.52;;;5.50;;
18720;SDS011;9489;50.948;3.114;2022-12-07T06:13:07;8.60;;;5.20;;
18720;SDS011;9489;50.948;3.114;2022-12-07T06:15:35;9.13;;;4.88;;
18720;SDS011;9489;50.948;3.114;2022-12-07T06:18:01;10.25;;;4.65;;
18720;SDS011;9489;50.948;3.114;2022-12-07T06:20:27;7.50;;;4.20;;
18720;SDS011;9489;50.948;3.114;2022-12-07T06:22:52;6.50;;;4.38;;
18720;SDS011;9489;50.948;3.114;2022-12-07T06:25:18;8.63;;;4.63;;
18720;SDS011;9489;50.948;3.114;2022-12-07T06:27:43;12.13;;;6.07;;
18720;SDS011;9489;50.948;3.114;2022-12-07T06:30:09;10.20;;;6.80;;
18720;SDS011;9489;50.948;3.114;2022-12-07T06:32:35;9.35;;;6.57;;
18720;SDS011;9489;50.948;3.114;2022-12-07T06:35:01;8.68;;;6.00;;
18720;SDS011;9489;50.948;3.114;2022-12-07T06:37:28;11.75;;;6.55;;
18720;SDS011;9489;50.948;3.114;2022-12-07T06:39:53;10.15;;;6.63;;
18720;SDS011;9489;50.948;3.114;2022-12-07T06:42:19;12.40;;;7.93;;
18720;SDS011;9489;50.948;3.114;2022-12-07T06:44:45;7.57;;;6.03;;
18720;SDS011;9489;50.948;3.114;2022-12-07T06:47:10;7.88;;;5.50;;
18720;SDS011;9489;50.948;3.114;2022-12-07T06:49:36;10.95;;;4.85;;
18720;SDS011;9489;50.948;3.114;2022-12-07T06:52:02;7.85;;;5.22;;
18720;SDS011;9489;50.948;3.114;2022-12-07T06:54:29;9.65;;;5.18;;
18720;SDS011;9489;50.948;3.114;2022-12-07T06:56:55;11.43;;;6.10;;
18720;SDS011;9489;50.948;3.114;2022-12-07T06:59:21;12.30;;;6.43;;
18720;SDS011;9489;50.948;3.114;2022-12-07T07:01:46;8.65;;;6.60;;
18720;SDS011;9489;50.948;3.114;2022-12-07T07:04:12;9.15;;;6.50;;
18720;SDS011;9489;50.948;3.114;2022-12-07T07:06:38;9.50;;;5.45;;
18720;SDS011;9489;50.948;3.114;2022-12-07T07:09:03;9.68;;;5.22;;
18720;SDS011;9489;50.948;3.114;2022-12-07T07:11:29;9.45;;;4.70;;
18720;SDS011;9489;50.948;3.114;2022-12-07T07:13:54;6.22;;;5.13;;
18720;SDS011;9489;50.948;3.114;2022-12-07T07:16:22;10.45;;;4.60;;
18720;SDS011;9489;50.948;3.114;2022-12-07T07:18:49;9.10;;;4.57;;
18720;SDS011;9489;50.948;3.114;2022-12-07T07:21:14;13.00;;;4.82;;
18720;SDS011;9489;50.948;3.114;2022-12-07T07:23:40;8.75;;;4.97;;
18720;SDS011;9489;50.948;3.114;2022-12-07T07:26:06;5.85;;;4.55;;
18720;SDS011;9489;50.948;3.114;2022-12-07T07:28:31;7.95;;;4.95;;
18720;SDS011;9489;50.948;3.114;2022-12-07T07:30:57;11.02;;;4.70;;
18720;SDS011;9489;50.948;3.114;2022-12-07T07:33:22;7.63;;;4.00;;
18720;SDS011;9489;50.948;3.114;2022-12-07T07:35:48;5.57;;;4.45;;
18720;SDS011;9489;50.948;3.114;2022-12-07T07:38:13;6.53;;;4.68;;
18720;SDS011;9489;50.948;3.114;2022-12-07T07:40:39;7.20;;;4.40;;
18720;SDS011;9489;50.948;3.114;2022-12-07T07:43:05;8.60;;;5.03;;
18720;SDS011;9489;50.948;3.114;2022-12-07T07:45:30;8.70;;;5.85;;
18720;SDS011;9489;50.948;3.114;2022-12-07T07:47:56;10.45;;;5.75;;
18720;SDS011;9489;50.948;3.114;2022-12-07T07:50:21;11.60;;;6.60;;
18720;SDS011;9489;50.948;3.114;2022-12-07T07:52:47;10.82;;;6.10;;
18720;SDS011;9489;50.948;3.114;2022-12-07T07:55:13;9.00;;;5.60;;
18720;SDS011;9489;50.948;3.114;2022-12-07T07:57:39;8.57;;;5.38;;
18720;SDS011;9489;50.948;3.114;2022-12-07T08:00:07;8.45;;;5.00;;
18720;SDS011;9489;50.948;3.114;2022-12-07T08:02:34;7.82;;;4.13;;
18720;SDS011;9489;50.948;3.114;2022-12-07T08:04:59;7.72;;;5.05;;
18720;SDS011;9489;50.948;3.114;2022-12-07T08:07:26;10.57;;;5.50;;
18720;SDS011;9489;50.948;3.114;2022-12-07T08:09:52;6.95;;;4.38;;
18720;SDS011;9489;50.948;3.114;2022-12-07T08:12:18;10.02;;;4.90;;
18720;SDS011;9489;50.948;3.114;2022-12-07T08:14:43;9.07;;;5.07;;
18720;SDS011;9489;50.948;3.114;2022-12-07T08:17:09;10.10;;;6.57;;
18720;SDS011;9489;50.948;3.114;2022-12-07T08:19:34;8.82;;;5.15;;
18720;SDS011;9489;50.948;3.114;2022-12-07T08:22:00;8.60;;;5.28;;
18720;SDS011;9489;50.948;3.114;2022-12-07T08:24:26;11.60;;;4.75;;
18720;SDS011;9489;50.948;3.114;2022-12-07T08:26:52;9.65;;;3.80;;
18720;SDS011;9489;50.948;3.114;2022-12-07T08:29:17;8.32;;;4.75;;
18720;SDS011;9489;50.948;3.114;2022-12-07T08:31:44;10.05;;;4.40;;
18720;SDS011;9489;50.948;3.114;2022-12-07T08:34:10;6.57;;;4.45;;
18720;SDS011;9489;50.948;3.114;2022-12-07T08:36:36;7.22;;;4.05;;
18720;SDS011;9489;50.948;3.114;2022-12-07T08:39:02;7.22;;;3.78;;
18720;SDS011;9489;50.948;3.114;2022-12-07T08:41:28;7.13;;;3.25;;
18720;SDS011;9489;50.948;3.114;2022-12-07T08:43:54;7.32;;;3.50;;
18720;SDS011;9489;50.948;3.114;2022-12-07T08:46:21;8.90;;;4.80;;
18720;SDS011;9489;50.948;3.114;2022-12-07T08:49:13;12.82;;;7.18;;
18720;SDS011;9489;50.948;3.114;2022-12-07T08:51:45;9.30;;;6.43;;
18720;SDS011;9489;50.948;3.114;2022-12-07T08:54:12;6.97;;;4.88;;
18720;SDS011;9489;50.948;3.114;2022-12-07T08:56:41;10.07;;;5.90;;
18720;SDS011;9489;50.948;3.114;2022-12-07T08:59:08;6.05;;;4.72;;
18720;SDS011;9489;50.948;3.114;2022-12-07T09:01:33;9.15;;;4.30;;
18720;SDS011;9489;50.948;3.114;2022-12-07T09:03:59;5.43;;;3.92;;
18720;SDS011;9489;50.948;3.114;2022-12-07T09:06:25;6.15;;;3.90;;
18720;SDS011;9489;50.948;3.114;2022-12-07T09:08:51;5.57;;;2.97;;
18720;SDS011;9489;50.948;3.114;2022-12-07T09:11:23;5.22;;;2.50;;
18720;SDS011;9489;50.948;3.114;2022-12-07T09:13:48;6.70;;;2.65;;
18720;SDS011;9489;50.948;3.114;2022-12-07T09:16:14;6.43;;;3.33;;
18720;SDS011;9489;50.948;3.114;2022-12-07T09:18:40;6.25;;;2.63;;
18720;SDS011;9489;50.948;3.114;2022-12-07T09:21:06;4.45;;;2.05;;
18720;SDS011;9489;50.948;3.114;2022-12-07T09:23:32;4.22;;;2.10;;
18720;SDS011;9489;50.948;3.114;2022-12-07T09:26:01;4.35;;;1.80;;
18720;SDS011;9489;50.948;3.114;2022-12-07T09:28:29;1.92;;;1.73;;
18720;SDS011;9489;50.948;3.114;2022-12-07T09:30:55;3.50;;;3.10;;
18720;SDS011;9489;50.948;3.114;2022-12-07T09:33:21;6.78;;;2.90;;
18720;SDS011;9489;50.948;3.114;2022-12-07T09:35:47;5.88;;;2.63;;
18720;SDS011;9489;50.948;3.114;2022-12-07T09:38:14;6.50;;;3.55;;
18720;SDS011;9489;50.948;3.114;2022-12-07T09:40:40;6.32;;;3.45;;
18720;SDS011;9489;50.948;3.114;2022-12-07T09:43:16;4.85;;;3.63;;
18720;SDS011;9489;50.948;3.114;2022-12-07T09:45:44;5.93;;;3.50;;
18720;SDS011;9489;50.948;3.114;2022-12-07T09:48:15;4.00;;;2.33;;
18720;SDS011;9489;50.948;3.114;2022-12-07T09:50:47;6.95;;;2.17;;
18720;SDS011;9489;50.948;3.114;2022-12-07T09:53:27;3.58;;;1.52;;
18720;SDS011;9489;50.948;3.114;2022-12-07T09:55:55;3.80;;;1.40;;
18720;SDS011;9489;50.948;3.114;2022-12-07T09:58:25;4.35;;;1.85;;
18720;SDS011;9489;50.948;3.114;2022-12-07T10:03:39;2.60;;;2.22;;
18720;SDS011;9489;50.948;3.114;2022-12-07T10:06:07;3.60;;;2.38;;
18720;SDS011;9489;50.948;3.114;2022-12-07T10:08:35;3.60;;;2.17;;
18720;SDS011;9489;50.948;3.114;2022-12-07T10:11:01;4.43;;;2.90;;
18720;SDS011;9489;50.948;3.114;2022-12-07T10:16:05;5.35;;;2.35;;
18720;SDS011;9489;50.948;3.114;2022-12-07T10:18:53;4.20;;;2.30;;
18720;SDS011;9489;50.948;3.114;2022-12-07T10:21:22;5.25;;;2.95;;
18720;SDS011;9489;50.948;3.114;2022-12-07T10:26:49;4.55;;;1.80;;
18720;SDS011;9489;50.948;3.114;2022-12-07T10:32:08;3.65;;;1.33;;
18720;SDS011;9489;50.948;3.114;2022-12-07T10:37:45;2.60;;;1.33;;
18720;SDS011;9489;50.948;3.114;2022-12-07T10:40:24;3.47;;;1.55;;
18720;SDS011;9489;50.948;3.114;2022-12-07T10:45:27;2.97;;;1.70;;
18720;SDS011;9489;50.948;3.114;2022-12-07T10:50:46;3.72;;;1.98;;
18720;SDS011;9489;50.948;3.114;2022-12-07T10:59:12;4.93;;;1.50;;
18720;SDS011;9489;50.948;3.114;2022-12-07T11:04:54;2.15;;;1.30;;
18720;SDS011;9489;50.948;3.114;2022-12-07T11:07:37;3.88;;;1.70;;
18720;SDS011;9489;50.948;3.114;2022-12-07T11:10:25;3.70;;;1.58;;
18720;SDS011;9489;50.948;3.114;2022-12-07T11:13:22;3.90;;;1.48;;
18720;SDS011;9489;50.948;3.114;2022-12-07T11:24:20;3.13;;;1.60;;
18720;SDS011;9489;50.948;3.114;2022-12-07T11:35:11;3.50;;;1.25;;
18720;SDS011;9489;50.948;3.114;2022-12-07T11:37:49;1.65;;;1.33;;
18720;SDS011;9489;50.948;3.114;2022-12-07T11:43:09;5.40;;;1.65;;
18720;SDS011;9489;50.948;3.114;2022-12-07T11:46:14;3.13;;;1.10;;
18720;SDS011;9489;50.948;3.114;2022-12-07T11:48:43;2.45;;;1.48;;
18720;SDS011;9489;50.948;3.114;2022-12-07T11:51:20;4.07;;;1.75;;
18720;SDS011;9489;50.948;3.114;2022-12-07T11:53:57;5.68;;;1.73;;
18720;SDS011;9489;50.948;3.114;2022-12-07T11:56:27;2.20;;;1.75;;
18720;SDS011;9489;50.948;3.114;2022-12-07T11:59:16;4.15;;;1.40;;
18720;SDS011;9489;50.948;3.114;2022-12-07T12:06:56;4.15;;;1.38;;
18720;SDS011;9489;50.948;3.114;2022-12-07T12:20:31;4.70;;;2.22;;
18720;SDS011;9489;50.948;3.114;2022-12-07T12:23:20;3.60;;;1.60;;
18720;SDS011;9489;50.948;3.114;2022-12-07T12:25:53;5.18;;;2.00;;
18720;SDS011;9489;50.948;3.114;2022-12-07T12:28:23;4.85;;;2.20;;
18720;SDS011;9489;50.948;3.114;2022-12-07T12:31:15;5.95;;;2.40;;
18720;SDS011;9489;50.948;3.114;2022-12-07T12:33:47;6.05;;;2.90;;
18720;SDS011;9489;50.948;3.114;2022-12-07T12:46:45;4.38;;;2.63;;
18720;SDS011;9489;50.948;3.114;2022-12-07T12:51:48;7.68;;;3.03;;
18720;SDS011;9489;50.948;3.114;2022-12-07T12:59:38;5.43;;;3.60;;
18720;SDS011;9489;50.948;3.114;2022-12-07T13:18:48;6.18;;;2.78;;
18720;SDS011;9489;50.948;3.114;2022-12-07T13:23:38;4.50;;;1.90;;
18720;SDS011;9489;50.948;3.114;2022-12-07T13:28:49;2.63;;;2.20;;
18720;SDS011;9489;50.948;3.114;2022-12-07T13:34:27;4.80;;;2.55;;
18720;SDS011;9489;50.948;3.114;2022-12-07T13:39:51;3.45;;;1.45;;
18720;SDS011;9489;50.948;3.114;2022-12-07T13:42:31;4.20;;;1.63;;
18720;SDS011;9489;50.948;3.114;2022-12-07T13:44:59;3.78;;;1.35;;
18720;SDS011;9489;50.948;3.114;2022-12-07T13:47:54;4.40;;;1.67;;
18720;SDS011;9489;50.948;3.114;2022-12-07T13:52:56;3.60;;;1.70;;
18720;SDS011;9489;50.948;3.114;2022-12-07T13:55:26;4.00;;;1.52;;
18720;SDS011;9489;50.948;3.114;2022-12-07T13:57:53;4.20;;;1.35;;
18720;SDS011;9489;50.948;3.114;2022-12-07T14:00:21;6.20;;;1.58;;
18720;SDS011;9489;50.948;3.114;2022-12-07T14:05:26;3.28;;;1.83;;
18720;SDS011;9489;50.948;3.114;2022-12-07T14:08:01;3.83;;;1.70;;
18720;SDS011;9489;50.948;3.114;2022-12-07T14:12:59;4.38;;;1.63;;
18720;SDS011;9489;50.948;3.114;2022-12-07T14:15:32;5.25;;;1.95;;
18720;SDS011;9489;50.948;3.114;2022-12-07T14:17:59;3.90;;;1.95;;
18720;SDS011;9489;50.948;3.114;2022-12-07T14:22:57;3.13;;;1.70;;
18720;SDS011;9489;50.948;3.114;2022-12-07T14:25:27;5.97;;;2.60;;
18720;SDS011;9489;50.948;3.114;2022-12-07T14:27:54;7.38;;;3.30;;
18720;SDS011;9489;50.948;3.114;2022-12-07T14:30:25;7.50;;;3.25;;
18720;SDS011;9489;50.948;3.114;2022-12-07T14:32:59;6.07;;;3.53;;
18720;SDS011;9489;50.948;3.114;2022-12-07T14:35:27;7.07;;;4.10;;
18720;SDS011;9489;50.948;3.114;2022-12-07T14:37:53;7.95;;;4.90;;
18720;SDS011;9489;50.948;3.114;2022-12-07T14:40:23;8.50;;;5.30;;
18720;SDS011;9489;50.948;3.114;2022-12-07T14:43:01;7.60;;;3.90;;
18720;SDS011;9489;50.948;3.114;2022-12-07T14:45:29;6.57;;;3.33;;
18720;SDS011;9489;50.948;3.114;2022-12-07T14:47:55;8.48;;;4.10;;
18720;SDS011;9489;50.948;3.114;2022-12-07T14:50:21;6.97;;;4.28;;
18720;SDS011;9489;50.948;3.114;2022-12-07T14:53:30;7.70;;;4.00;;
18720;SDS011;9489;50.948;3.114;2022-12-07T14:55:39;4.65;;;2.22;;
18720;SDS011;9489;50.948;3.114;2022-12-07T14:58:04;3.05;;;1.80;;
18720;SDS011;9489;50.948;3.114;2022-12-07T15:00:30;2.70;;;1.50;;
18720;SDS011;9489;50.948;3.114;2022-12-07T15:02:56;3.42;;;1.67;;
18720;SDS011;9489;50.948;3.114;2022-12-07T15:05:22;2.45;;;1.70;;
18720;SDS011;9489;50.948;3.114;2022-12-07T15:07:48;2.63;;;1.40;;
18720;SDS011;9489;50.948;3.114;2022-12-07T15:10:18;3.70;;;2.25;;
18720;SDS011;9489;50.948;3.114;2022-12-07T15:12:48;1.92;;;1.40;;
18720;SDS011;9489;50.948;3.114;2022-12-07T15:15:14;9.02;;;6.72;;
18720;SDS011;9489;50.948;3.114;2022-12-07T15:17:40;6.00;;;3.95;;
18720;SDS011;9489;50.948;3.114;2022-12-07T15:20:08;8.15;;;3.40;;
18720;SDS011;9489;50.948;3.114;2022-12-07T15:22:39;4.45;;;3.00;;
18720;SDS011;9489;50.948;3.114;2022-12-07T15:25:05;5.03;;;2.92;;
18720;SDS011;9489;50.948;3.114;2022-12-07T15:27:31;5.22;;;3.05;;
18720;SDS011;9489;50.948;3.114;2022-12-07T15:29:57;8.85;;;4.57;;
18720;SDS011;9489;50.948;3.114;2022-12-07T15:32:22;4.13;;;3.28;;
18720;SDS011;9489;50.948;3.114;2022-12-07T15:34:48;6.55;;;3.92;;
18720;SDS011;9489;50.948;3.114;2022-12-07T15:37:15;4.28;;;3.00;;
18720;SDS011;9489;50.948;3.114;2022-12-07T15:39:41;4.47;;;3.35;;
18720;SDS011;9489;50.948;3.114;2022-12-07T15:42:07;8.20;;;7.18;;
18720;SDS011;9489;50.948;3.114;2022-12-07T15:44:33;6.20;;;5.55;;
18720;SDS011;9489;50.948;3.114;2022-12-07T15:47:17;5.97;;;3.80;;
18720;SDS011;9489;50.948;3.114;2022-12-07T15:49:42;7.85;;;4.45;;
18720;SDS011;9489;50.948;3.114;2022-12-07T15:52:08;8.40;;;5.32;;
18720;SDS011;9489;50.948;3.114;2022-12-07T15:54:34;9.27;;;5.85;;
18720;SDS011;9489;50.948;3.114;2022-12-07T15:57:00;6.25;;;4.47;;
18720;SDS011;9489;50.948;3.114;2022-12-07T15:59:26;9.93;;;6.68;;
18720;SDS011;9489;50.948;3.114;2022-12-07T16:01:53;12.02;;;6.80;;
18720;SDS011;9489;50.948;3.114;2022-12-07T16:04:18;10.88;;;6.05;;
18720;SDS011;9489;50.948;3.114;2022-12-07T16:06:45;6.93;;;5.07;;
18720;SDS011;9489;50.948;3.114;2022-12-07T16:09:10;10.00;;;4.35;;
18720;SDS011;9489;50.948;3.114;2022-12-07T16:11:36;5.07;;;3.90;;
18720;SDS011;9489;50.948;3.114;2022-12-07T16:14:01;6.85;;;4.55;;
18720;SDS011;9489;50.948;3.114;2022-12-07T16:16:27;9.68;;;8.15;;
18720;SDS011;9489;50.948;3.114;2022-12-07T16:18:53;5.97;;;3.83;;
18720;SDS011;9489;50.948;3.114;2022-12-07T16:21:19;6.63;;;3.45;;
18720;SDS011;9489;50.948;3.114;2022-12-07T16:23:45;7.30;;;4.07;;
18720;SDS011;9489;50.948;3.114;2022-12-07T16:26:15;9.38;;;5.93;;
18720;SDS011;9489;50.948;3.114;2022-12-07T16:28:43;7.72;;;3.97;;
18720;SDS011;9489;50.948;3.114;2022-12-07T16:31:10;5.47;;;4.40;;
18720;SDS011;9489;50.948;3.114;2022-12-07T16:33:38;6.18;;;3.42;;
18720;SDS011;9489;50.948;3.114;2022-12-07T16:36:05;10.18;;;6.95;;
18720;SDS011;9489;50.948;3.114;2022-12-07T16:38:31;10.02;;;6.95;;
18720;SDS011;9489;50.948;3.114;2022-12-07T16:40:57;7.28;;;6.68;;
18720;SDS011;9489;50.948;3.114;2022-12-07T16:43:23;9.02;;;8.18;;
18720;SDS011;9489;50.948;3.114;2022-12-07T16:45:49;5.80;;;5.20;;
18720;SDS011;9489;50.948;3.114;2022-12-07T16:48:15;7.30;;;4.35;;
18720;SDS011;9489;50.948;3.114;2022-12-07T16:50:41;7.25;;;4.75;;
18720;SDS011;9489;50.948;3.114;2022-12-07T16:53:08;6.00;;;5.10;;
18720;SDS011;9489;50.948;3.114;2022-12-07T16:55:35;7.68;;;5.28;;
18720;SDS011;9489;50.948;3.114;2022-12-07T16:58:02;5.25;;;4.57;;
18720;SDS011;9489;50.948;3.114;2022-12-07T17:00:27;5.28;;;4.35;;
18720;SDS011;9489;50.948;3.114;2022-12-07T17:02:53;6.45;;;4.40;;
18720;SDS011;9489;50.948;3.114;2022-12-07T17:05:20;6.32;;;5.55;;
18720;SDS011;9489;50.948;3.114;2022-12-07T17:07:46;6.88;;;6.00;;
18720;SDS011;9489;50.948;3.114;2022-12-07T17:10:11;4.57;;;4.18;;
18720;SDS011;9489;50.948;3.114;2022-12-07T17:12:37;5.13;;;3.63;;
18720;SDS011;9489;50.948;3.114;2022-12-07T17:15:03;6.50;;;3.67;;
18720;SDS011;9489;50.948;3.114;2022-12-07T17:17:55;4.57;;;3.50;;
18720;SDS011;9489;50.948;3.114;2022-12-07T17:20:23;7.05;;;4.18;;
18720;SDS011;9489;50.948;3.114;2022-12-07T17:22:51;5.50;;;3.75;;
18720;SDS011;9489;50.948;3.114;2022-12-07T17:25:16;4.97;;;3.60;;
18720;SDS011;9489;50.948;3.114;2022-12-07T17:27:43;6.60;;;3.22;;
18720;SDS011;9489;50.948;3.114;2022-12-07T17:30:09;5.38;;;3.92;;
18720;SDS011;9489;50.948;3.114;2022-12-07T17:32:36;4.32;;;3.88;;
18720;SDS011;9489;50.948;3.114;2022-12-07T17:35:01;6.75;;;4.35;;
18720;SDS011;9489;50.948;3.114;2022-12-07T17:37:28;7.88;;;4.82;;
18720;SDS011;9489;50.948;3.114;2022-12-07T17:39:56;11.50;;;5.85;;
18720;SDS011;9489;50.948;3.114;2022-12-07T17:42:25;10.27;;;6.32;;